TimeCDT,TemperatureF,Dew PointF,Humidity,Sea Level PressureIn,VisibilityMPH,Wind Direction,Wind SpeedMPH,Gust SpeedMPH,PrecipitationIn,Events,Conditions,WindDirDegrees,DateUTC
12:54 AM,33.1,27.0,78,30.23,10.0,South,4.6,-,N/A,,Clear,170,2013-04-26 05:54:00
1:54 AM,35.1,27.0,72,30.22,10.0,South,6.9,-,N/A,,Scattered Clouds,190,2013-04-26 06:54:00
2:54 AM,37.0,27.0,67,30.21,10.0,SSE,5.8,-,N/A,,Overcast,150,2013-04-26 07:54:00
3:54 AM,37.9,26.1,62,30.20,10.0,SE,5.8,-,N/A,,Overcast,130,2013-04-26 08:54:00
4:54 AM,37.9,28.0,68,30.18,9.0,SSE,8.1,-,0.00,Rain,Light Rain,150,2013-04-26 09:54:00
5:54 AM,37.9,28.9,70,30.18,10.0,South,6.9,-,0.00,,Overcast,190,2013-04-26 10:54:00
6:54 AM,37.9,30.0,73,30.17,10.0,SSE,11.5,-,0.01,Rain,Light Rain,160,2013-04-26 11:54:00
7:54 AM,37.0,33.1,86,30.19,6.0,SSE,12.7,-,0.01,Rain,Light Rain,160,2013-04-26 12:54:00
8:54 AM,41.0,33.1,73,30.16,10.0,SSE,16.1,-,0.01,,Partly Cloudy,160,2013-04-26 13:54:00
9:54 AM,45.0,34.0,65,30.14,10.0,South,17.3,-,N/A,,Mostly Cloudy,170,2013-04-26 14:54:00
10:54 AM,53.1,39.0,59,30.13,10.0,South,11.5,-,N/A,,Scattered Clouds,180,2013-04-26 15:54:00
11:54 AM,60.1,39.9,47,30.11,10.0,SSW,19.6,26.5,N/A,,Clear,210,2013-04-26 16:54:00
12:54 PM,64.0,39.9,41,30.09,10.0,WSW,16.1,25.3,N/A,,Partly Cloudy,240,2013-04-26 17:54:00
1:54 PM,66.0,39.9,38,30.07,10.0,WSW,13.8,23.0,N/A,,Clear,250,2013-04-26 18:54:00
2:54 PM,68.0,42.1,39,30.06,10.0,SW,10.4,-,N/A,,Clear,230,2013-04-26 19:54:00
3:54 PM,68.0,41.0,37,30.06,10.0,WSW,12.7,24.2,N/A,,Partly Cloudy,250,2013-04-26 20:54:00
4:54 PM,69.1,41.0,36,30.05,10.0,WSW,16.1,21.9,N/A,,Scattered Clouds,250,2013-04-26 21:54:00
5:54 PM,66.9,42.1,40,30.06,10.0,WSW,11.5,20.7,N/A,,Partly Cloudy,240,2013-04-26 22:54:00
6:54 PM,64.9,42.1,43,30.08,10.0,WSW,8.1,-,N/A,,Partly Cloudy,250,2013-04-26 23:54:00
7:54 PM,63.0,43.0,48,30.10,10.0,WSW,6.9,-,N/A,,Mostly Cloudy,240,2013-04-27 00:54:00
8:54 PM,59.0,43.0,55,30.12,10.0,SW,4.6,-,N/A,,Mostly Cloudy,220,2013-04-27 01:54:00
9:54 PM,59.0,44.1,58,30.14,10.0,South,8.1,-,N/A,,Overcast,190,2013-04-27 02:54:00
10:54 PM,57.0,46.0,67,30.15,10.0,SSW,9.2,-,N/A,,Scattered Clouds,210,2013-04-27 03:54:00
11:54 PM,54.0,45.0,72,30.16,10.0,SW,8.1,-,N/A,,Clear,220,2013-04-27 04:54:00